Time;durP1;ratioP1;P1;durP2;ratioP2;P2;SDS_P1;SDS_P2;PMS_P1;PMS_P2;Temp;Humidity;BMP_temperature;BMP_pressure;BME280_temperature;BME280_humidity;BME280_pressure;Samples;Min_cycle;Max_cycle;Signal;HPM_P1;HPM_P2
2022/05/12 00:00:17;;;;;;;4.40;2.83;;;;;;;;;;5048949;28;20205;-66
2022/05/12 00:02:44;;;;;;;3.67;2.80;;;;;;;;;;5054875;28;20197;-68
2022/05/12 00:05:12;;;;;;;3.47;3.13;;;;;;;;;;5050324;28;20205;-68
2022/05/12 00:07:41;;;;;;;4.78;3.03;;;;;;;;;;5059938;28;20259;-67
2022/05/12 00:10:09;;;;;;;3.28;2.95;;;;;;;;;;5060404;28;20306;-66
2022/05/12 00:12:37;;;;;;;4.40;3.10;;;;;;;;;;5055047;28;20572;-66
2022/05/12 00:15:06;;;;;;;3.08;2.80;;;;;;;;;;5057436;28;20230;-68
2022/05/12 00:17:35;;;;;;;4.03;2.97;;;;;;;;;;5076026;28;20221;-69
2022/05/12 00:20:02;;;;;;;5.50;3.40;;;;;;;;;;5072912;28;20785;-66
2022/05/12 00:22:29;;;;;;;4.47;3.00;;;;;;;;;;5045174;28;20212;-66
2022/05/12 00:24:57;;;;;;;3.95;3.08;;;;;;;;;;5066048;28;20353;-67
2022/05/12 00:27:24;;;;;;;3.92;3.38;;;;;;;;;;5064088;28;20225;-66
2022/05/12 00:29:51;;;;;;;3.28;2.97;;;;;;;;;;5067237;28;20201;-66
2022/05/12 00:32:19;;;;;;;3.33;2.75;;;;;;;;;;5061372;28;20201;-68
2022/05/12 00:34:46;;;;;;;6.30;3.20;;;;;;;;;;5063270;28;20201;-63
2022/05/12 00:37:14;;;;;;;3.35;3.08;;;;;;;;;;5080125;28;20212;-66
2022/05/12 00:39:41;;;;;;;4.32;3.15;;;;;;;;;;5079985;28;20261;-68
2022/05/12 00:42:09;;;;;;;3.50;3.20;;;;;;;;;;5067539;28;20205;-65
2022/05/12 00:44:36;;;;;;;4.53;3.10;;;;;;;;;;5070620;28;20207;-65
2022/05/12 00:47:03;;;;;;;3.13;2.65;;;;;;;;;;5068927;28;20205;-66
2022/05/12 00:49:38;;;;;;;2.92;2.58;;;;;;;;;;5064966;28;20208;-67
2022/05/12 00:52:07;;;;;;;3.10;2.75;;;;;;;;;;5076100;28;20291;-68
2022/05/12 00:54:44;;;;;;;2.80;2.60;;;;;;;;;;5065644;28;20197;-66
2022/05/12 00:57:15;;;;;;;3.60;2.50;;;;;;;;;;5058654;28;20216;-66
2022/05/12 00:59:42;;;;;;;4.00;2.70;;;;;;;;;;5055104;28;20197;-67
2022/05/12 01:02:12;;;;;;;3.10;2.80;;;;;;;;;;5066597;28;20253;-65
2022/05/12 01:04:41;;;;;;;2.75;2.55;;;;;;;;;;5065080;28;20211;-65
2022/05/12 01:07:09;;;;;;;7.32;2.85;;;;;;;;;;5070604;28;20623;-67
2022/05/12 01:09:36;;;;;;;2.88;2.38;;;;;;;;;;5065781;28;20569;-65
2022/05/12 01:12:04;;;;;;;3.10;2.60;;;;;;;;;;5063100;28;20790;-65
2022/05/12 01:14:32;;;;;;;3.58;2.35;;;;;;;;;;5068714;28;20250;-66
2022/05/12 01:17:00;;;;;;;5.20;2.67;;;;;;;;;;5060343;28;20197;-67
2022/05/12 01:19:30;;;;;;;3.08;2.38;;;;;;;;;;5062783;28;20615;-66
2022/05/12 01:21:57;;;;;;;2.60;2.35;;;;;;;;;;5078185;28;20208;-67
2022/05/12 01:24:30;;;;;;;2.92;2.40;;;;;;;;;;5049666;28;20205;-68
2022/05/12 01:27:18;;;;;;;4.07;2.40;;;;;;;;;;5079059;28;20308;-67
2022/05/12 01:29:46;;;;;;;3.60;2.28;;;;;;;;;;5078930;28;20220;-66
2022/05/12 01:32:13;;;;;;;3.30;2.28;;;;;;;;;;5060929;28;20224;-69
2022/05/12 01:34:41;;;;;;;2.30;2.10;;;;;;;;;;5058923;28;20205;-69
2022/05/12 01:37:08;;;;;;;3.92;2.38;;;;;;;;;;5061996;28;20201;-67
2022/05/12 01:39:36;;;;;;;2.70;2.35;;;;;;;;;;5067234;28;20213;-66
2022/05/12 01:42:04;;;;;;;2.42;2.00;;;;;;;;;;5064330;28;21474;-66
2022/05/12 01:44:31;;;;;;;3.40;2.47;;;;;;;;;;5066569;28;20276;-66
2022/05/12 01:46:59;;;;;;;3.15;2.28;;;;;;;;;;5060691;28;20562;-67
2022/05/12 01:49:26;;;;;;;4.82;2.22;;;;;;;;;;5068615;28;20217;-66
2022/05/12 01:51:57;;;;;;;5.55;2.60;;;;;;;;;;5064967;28;20252;-66
2022/05/12 01:54:25;;;;;;;5.90;2.28;;;;;;;;;;5064483;28;20201;-66
2022/05/12 01:56:53;;;;;;;2.70;2.17;;;;;;;;;;5065469;28;20259;-65
2022/05/12 01:59:21;;;;;;;4.28;2.30;;;;;;;;;;5066812;28;20281;-68
2022/05/12 02:01:49;;;;;;;4.50;2.50;;;;;;;;;;5065304;28;20600;-66
2022/05/12 02:04:17;;;;;;;2.75;2.40;;;;;;;;;;5066927;28;20216;-66
2022/05/12 02:06:45;;;;;;;3.42;2.40;;;;;;;;;;5069437;28;20205;-69
2022/05/12 02:09:13;;;;;;;3.20;2.13;;;;;;;;;;5067027;28;20232;-65
2022/05/12 02:11:40;;;;;;;3.42;2.20;;;;;;;;;;5067017;28;20318;-68
2022/05/12 02:14:08;;;;;;;4.07;2.20;;;;;;;;;;5068224;28;20236;-66
2022/05/12 02:16:35;;;;;;;2.15;1.80;;;;;;;;;;5059473;28;20774;-66
2022/05/12 02:19:05;;;;;;;5.88;1.98;;;;;;;;;;5071588;28;20710;-63
2022/05/12 02:21:33;;;;;;;3.58;1.98;;;;;;;;;;5069082;28;20208;-67
2022/05/12 02:24:01;;;;;;;2.65;1.95;;;;;;;;;;5080294;28;20291;-66
2022/05/12 02:26:29;;;;;;;2.70;2.00;;;;;;;;;;5054534;28;20209;-66
2022/05/12 02:28:56;;;;;;;3.80;2.40;;;;;;;;;;5075685;28;20686;-66
2022/05/12 02:31:24;;;;;;;3.40;1.98;;;;;;;;;;5063506;28;20224;-66
2022/05/12 02:33:52;;;;;;;3.35;2.45;;;;;;;;;;5060768;28;20274;-66
2022/05/12 02:36:20;;;;;;;3.55;2.03;;;;;;;;;;5061026;28;20267;-66
2022/05/12 02:38:47;;;;;;;2.70;2.20;;;;;;;;;;5072944;28;20727;-66
2022/05/12 02:41:15;;;;;;;8.20;2.20;;;;;;;;;;5050108;28;20581;-67
2022/05/12 02:43:42;;;;;;;3.70;2.10;;;;;;;;;;5054220;28;20691;-66
2022/05/12 02:46:11;;;;;;;2.15;1.90;;;;;;;;;;5072133;28;20219;-69
2022/05/12 02:48:40;;;;;;;2.20;2.00;;;;;;;;;;5056691;28;20230;-65
2022/05/12 02:51:08;;;;;;;2.63;2.30;;;;;;;;;;5055980;28;20233;-67
2022/05/12 02:53:35;;;;;;;2.45;1.95;;;;;;;;;;5058861;28;20205;-67
2022/05/12 02:56:03;;;;;;;3.90;2.30;;;;;;;;;;5065196;28;20208;-67
2022/05/12 02:58:31;;;;;;;2.20;2.00;;;;;;;;;;5074566;28;20221;-66
2022/05/12 03:00:58;;;;;;;2.20;2.10;;;;;;;;;;5053575;28;20213;-65
2022/05/12 03:03:26;;;;;;;3.47;2.20;;;;;;;;;;5063438;28;20647;-67
2022/05/12 03:05:54;;;;;;;2.25;2.05;;;;;;;;;;5075709;28;20666;-66
2022/05/12 03:08:22;;;;;;;2.60;2.40;;;;;;;;;;5064213;28;20709;-67
2022/05/12 03:10:51;;;;;;;2.55;2.03;;;;;;;;;;5066182;28;20596;-67
2022/05/12 03:13:20;;;;;;;5.22;2.20;;;;;;;;;;5063048;28;20209;-67
2022/05/12 03:15:47;;;;;;;2.25;2.05;;;;;;;;;;5077252;28;20215;-66
2022/05/12 03:18:14;;;;;;;3.90;2.05;;;;;;;;;;5061890;28;20224;-65
2022/05/12 03:20:42;;;;;;;4.93;2.25;;;;;;;;;;5055130;28;20289;-66
2022/05/12 03:23:09;;;;;;;4.57;2.30;;;;;;;;;;5057764;28;20670;-66
2022/05/12 03:25:37;;;;;;;4.90;2.70;;;;;;;;;;5062628;28;20251;-67
2022/05/12 03:28:04;;;;;;;2.83;2.60;;;;;;;;;;5063002;28;20279;-66
2022/05/12 03:30:32;;;;;;;2.17;2.08;;;;;;;;;;5075059;28;20218;-67
2022/05/12 03:32:59;;;;;;;2.38;2.08;;;;;;;;;;5057569;28;20209;-66
2022/05/12 03:35:27;;;;;;;2.50;2.17;;;;;;;;;;5062410;28;20891;-67
2022/05/12 03:37:54;;;;;;;3.20;2.22;;;;;;;;;;5056517;28;20310;-66
2022/05/12 03:40:22;;;;;;;2.30;2.10;;;;;;;;;;5058001;28;20197;-65
2022/05/12 03:42:50;;;;;;;9.95;8.15;;;;;;;;;;5054166;28;20390;-68
2022/05/12 03:45:17;;;;;;;3.30;2.70;;;;;;;;;;5057586;28;20328;-66
2022/05/12 03:47:48;;;;;;;3.00;2.30;;;;;;;;;;5061728;28;20276;-68
2022/05/12 03:50:18;;;;;;;4.35;2.20;;;;;;;;;;5081039;28;20205;-69
2022/05/12 03:52:47;;;;;;;4.32;2.33;;;;;;;;;;5058223;28;20227;-68
2022/05/12 03:55:16;;;;;;;4.82;2.20;;;;;;;;;;5060001;28;20305;-67
2022/05/12 03:57:44;;;;;;;4.90;2.77;;;;;;;;;;5062298;28;20220;-66
2022/05/12 04:00:20;;;;;;;7.97;2.60;;;;;;;;;;5054466;28;20289;-69
2022/05/12 04:02:48;;;;;;;2.70;2.50;;;;;;;;;;5062093;28;20209;-66
2022/05/12 04:05:18;;;;;;;2.50;2.30;;;;;;;;;;5058381;28;20208;-67
2022/05/12 04:07:49;;;;;;;2.60;2.40;;;;;;;;;;5055761;28;20285;-67
2022/05/12 04:10:17;;;;;;;2.70;2.10;;;;;;;;;;5057245;28;20726;-69
2022/05/12 04:12:44;;;;;;;3.28;2.35;;;;;;;;;;5061586;28;23587;-67
2022/05/12 04:15:11;;;;;;;2.50;2.30;;;;;;;;;;5058715;28;20197;-67
2022/05/12 04:17:40;;;;;;;2.65;2.40;;;;;;;;;;5074898;28;20224;-69
2022/05/12 04:20:12;;;;;;;3.67;2.40;;;;;;;;;;5078666;28;20238;-66
2022/05/12 04:22:40;;;;;;;3.25;2.50;;;;;;;;;;5059006;28;20205;-65
2022/05/12 04:25:08;;;;;;;2.78;2.42;;;;;;;;;;5057821;28;20678;-67
2022/05/12 04:27:36;;;;;;;3.27;2.50;;;;;;;;;;5064588;28;20224;-67
2022/05/12 04:30:05;;;;;;;3.90;2.30;;;;;;;;;;5077537;28;20243;-67
2022/05/12 04:32:33;;;;;;;2.35;2.13;;;;;;;;;;5053197;28;20225;-66
2022/05/12 04:35:11;;;;;;;3.00;2.50;;;;;;;;;;5067877;28;20304;-66
2022/05/12 04:37:41;;;;;;;2.60;2.40;;;;;;;;;;5062047;28;20216;-66
2022/05/12 04:40:11;;;;;;;2.75;2.53;;;;;;;;;;5064541;28;20299;-66
2022/05/12 04:42:39;;;;;;;2.83;2.63;;;;;;;;;;5061508;28;20261;-66
2022/05/12 04:45:07;;;;;;;4.60;2.75;;;;;;;;;;5066980;28;20793;-67
2022/05/12 04:47:36;;;;;;;2.92;2.63;;;;;;;;;;5073263;28;20260;-67
2022/05/12 04:50:04;;;;;;;5.53;2.80;;;;;;;;;;5066835;28;20209;-67
2022/05/12 04:52:32;;;;;;;4.60;2.40;;;;;;;;;;5074262;28;20227;-67
2022/05/12 04:54:59;;;;;;;2.80;2.45;;;;;;;;;;5059781;28;20581;-67
2022/05/12 04:57:27;;;;;;;3.60;3.07;;;;;;;;;;5056976;28;20665;-67
2022/05/12 04:59:55;;;;;;;9.13;3.13;;;;;;;;;;5070775;28;20213;-67
2022/05/12 05:02:23;;;;;;;3.80;3.13;;;;;;;;;;5058737;28;20213;-65
2022/05/12 05:04:51;;;;;;;2.95;2.70;;;;;;;;;;5062057;28;20215;-67
2022/05/12 05:07:18;;;;;;;3.23;2.47;;;;;;;;;;5077996;28;20254;-67
2022/05/12 05:09:46;;;;;;;2.83;2.63;;;;;;;;;;5058017;28;20212;-67
2022/05/12 05:12:13;;;;;;;4.97;2.65;;;;;;;;;;5055821;28;20267;-67
2022/05/12 05:14:40;;;;;;;5.78;2.45;;;;;;;;;;5064750;28;20208;-67
2022/05/12 05:17:09;;;;;;;2.67;2.47;;;;;;;;;;5062803;28;20201;-67
2022/05/12 05:19:36;;;;;;;4.15;2.50;;;;;;;;;;5058382;28;20237;-66
2022/05/12 05:22:04;;;;;;;4.35;2.55;;;;;;;;;;5059562;28;20264;-67
2022/05/12 05:24:32;;;;;;;2.83;2.53;;;;;;;;;;5059688;28;20266;-67
2022/05/12 05:26:59;;;;;;;3.83;2.40;;;;;;;;;;5057720;28;20205;-67
2022/05/12 05:29:27;;;;;;;7.28;2.40;;;;;;;;;;5073972;28;20205;-67
2022/05/12 05:31:54;;;;;;;2.67;2.47;;;;;;;;;;5061605;28;20249;-68
2022/05/12 05:34:30;;;;;;;3.95;2.15;;;;;;;;;;5048970;28;20344;-67
2022/05/12 05:36:58;;;;;;;2.85;2.40;;;;;;;;;;5058015;28;20615;-66
2022/05/12 05:39:26;;;;;;;3.45;2.25;;;;;;;;;;5057935;28;20213;-67
2022/05/12 05:41:59;;;;;;;5.47;2.03;;;;;;;;;;5055851;28;20205;-66
2022/05/12 05:44:28;;;;;;;3.42;2.05;;;;;;;;;;5074303;28;20249;-67
2022/05/12 05:46:55;;;;;;;4.90;2.13;;;;;;;;;;5065768;28;20674;-67
2022/05/12 05:49:23;;;;;;;2.78;2.00;;;;;;;;;;5064833;28;20760;-68
2022/05/12 05:54:36;;;;;;;2.78;1.92;;;;;;;;;;5087672;28;20209;-67
2022/05/12 05:57:03;;;;;;;2.72;1.90;;;;;;;;;;5062981;28;20255;-67
2022/05/12 05:59:31;;;;;;;1.95;1.75;;;;;;;;;;5068079;28;20193;-66
2022/05/12 06:01:58;;;;;;;3.85;1.92;;;;;;;;;;5052552;28;20569;-67
2022/05/12 06:04:26;;;;;;;4.80;1.90;;;;;;;;;;5062706;28;20239;-67
2022/05/12 06:06:53;;;;;;;4.07;1.90;;;;;;;;;;5065298;28;20356;-67
2022/05/12 06:09:20;;;;;;;4.78;2.30;;;;;;;;;;5063156;28;20297;-66
2022/05/12 06:11:48;;;;;;;2.35;1.98;;;;;;;;;;5054476;28;20224;-68
2022/05/12 06:14:17;;;;;;;2.90;2.30;;;;;;;;;;5061583;28;20249;-67
2022/05/12 06:16:44;;;;;;;3.45;2.15;;;;;;;;;;5072977;28;20907;-67
2022/05/12 06:19:12;;;;;;;2.85;2.40;;;;;;;;;;5062889;28;20248;-66
2022/05/12 06:21:39;;;;;;;3.33;2.30;;;;;;;;;;5064902;28;20193;-67
2022/05/12 06:24:07;;;;;;;3.85;2.38;;;;;;;;;;5065559;28;20213;-67
2022/05/12 06:26:34;;;;;;;5.25;2.88;;;;;;;;;;5061569;28;20205;-68
2022/05/12 06:29:02;;;;;;;3.30;2.33;;;;;;;;;;5059964;28;20228;-68
2022/05/12 06:31:33;;;;;;;4.15;2.50;;;;;;;;;;5065413;28;20606;-68
2022/05/12 06:34:01;;;;;;;2.92;2.70;;;;;;;;;;5055003;28;20716;-67
2022/05/12 06:36:29;;;;;;;2.92;2.45;;;;;;;;;;5057669;28;20209;-67
2022/05/12 06:38:56;;;;;;;3.38;2.50;;;;;;;;;;5051960;28;20217;-67
2022/05/12 06:41:26;;;;;;;3.70;2.45;;;;;;;;;;5081144;28;20225;-68
2022/05/12 06:43:54;;;;;;;2.45;2.25;;;;;;;;;;5060767;28;20303;-67
2022/05/12 06:46:21;;;;;;;4.75;2.70;;;;;;;;;;5066445;28;20257;-67
2022/05/12 06:48:54;;;;;;;3.50;3.10;;;;;;;;;;5060922;28;20225;-68
2022/05/12 06:51:22;;;;;;;4.45;2.50;;;;;;;;;;5063072;28;20205;-69
2022/05/12 06:53:49;;;;;;;7.05;2.70;;;;;;;;;;5059709;28;20231;-67
2022/05/12 06:56:17;;;;;;;6.60;2.83;;;;;;;;;;5068654;28;20262;-67
2022/05/12 06:58:44;;;;;;;4.53;3.10;;;;;;;;;;5066501;28;20297;-69
2022/05/12 07:01:11;;;;;;;3.28;2.80;;;;;;;;;;5061512;28;20487;-67
2022/05/12 07:03:39;;;;;;;6.82;3.03;;;;;;;;;;5060246;28;20250;-67
2022/05/12 07:06:07;;;;;;;3.55;2.72;;;;;;;;;;5055821;28;21013;-67
2022/05/12 07:08:41;;;;;;;3.42;3.10;;;;;;;;;;5063783;28;20217;-67
2022/05/12 07:11:09;;;;;;;5.40;2.92;;;;;;;;;;5060226;28;20674;-67
2022/05/12 07:13:37;;;;;;;4.43;3.10;;;;;;;;;;5054097;28;20225;-67
2022/05/12 07:16:04;;;;;;;4.60;3.00;;;;;;;;;;5054203;28;20221;-68
2022/05/12 07:18:34;;;;;;;4.82;2.88;;;;;;;;;;5063973;28;20217;-67
2022/05/12 07:26:52;;;;;;;6.55;4.18;;;;;;;;;;5077578;28;20856;-67
2022/05/12 07:29:21;;;;;;;3.97;3.15;;;;;;;;;;5078724;28;20270;-66
2022/05/12 07:31:49;;;;;;;3.42;3.13;;;;;;;;;;5061579;28;20286;-67
2022/05/12 07:34:17;;;;;;;7.65;3.60;;;;;;;;;;5061171;28;20201;-67
2022/05/12 07:36:46;;;;;;;5.22;3.08;;;;;;;;;;5065250;28;20394;-68
2022/05/12 07:39:16;;;;;;;6.75;3.10;;;;;;;;;;5077080;28;20355;-67
2022/05/12 07:41:43;;;;;;;4.63;3.40;;;;;;;;;;5058615;28;20610;-66
2022/05/12 07:44:13;;;;;;;6.10;3.25;;;;;;;;;;5060380;28;20262;-67
2022/05/12 07:46:41;;;;;;;7.22;3.15;;;;;;;;;;5068957;28;20212;-67
2022/05/12 07:49:09;;;;;;;4.75;3.20;;;;;;;;;;5067820;28;20224;-67
2022/05/12 07:51:36;;;;;;;9.27;3.40;;;;;;;;;;5061222;28;20209;-68
2022/05/12 07:54:04;;;;;;;5.20;3.33;;;;;;;;;;5060114;28;20209;-67
2022/05/12 07:56:31;;;;;;;4.68;3.33;;;;;;;;;;5066634;28;20666;-67
2022/05/12 07:58:59;;;;;;;5.97;3.63;;;;;;;;;;5068822;28;20259;-67
2022/05/12 08:01:28;;;;;;;5.65;3.50;;;;;;;;;;5072370;28;20231;-65
2022/05/12 08:03:55;;;;;;;3.80;3.10;;;;;;;;;;5068382;28;20212;-67
2022/05/12 08:06:23;;;;;;;5.28;3.42;;;;;;;;;;5061573;28;20201;-68
2022/05/12 08:08:51;;;;;;;5.07;3.80;;;;;;;;;;5058251;28;20820;-67
2022/05/12 08:11:19;;;;;;;5.65;3.50;;;;;;;;;;5065504;28;20197;-68
2022/05/12 08:13:47;;;;;;;4.50;3.35;;;;;;;;;;5052442;28;20236;-67
2022/05/12 08:16:16;;;;;;;6.35;3.60;;;;;;;;;;5058810;28;20205;-69
2022/05/12 08:18:46;;;;;;;6.30;3.70;;;;;;;;;;5078693;28;20753;-66
2022/05/12 08:21:14;;;;;;;5.18;4.00;;;;;;;;;;5068496;28;20201;-67
2022/05/12 08:23:42;;;;;;;6.53;4.20;;;;;;;;;;5073419;28;20204;-67
2022/05/12 08:26:09;;;;;;;6.68;3.67;;;;;;;;;;5072564;28;20270;-66
2022/05/12 08:28:37;;;;;;;5.05;3.75;;;;;;;;;;5059915;28;20239;-67
2022/05/12 08:31:05;;;;;;;4.40;3.53;;;;;;;;;;5064443;28;20291;-67
2022/05/12 08:33:36;;;;;;;4.57;3.42;;;;;;;;;;5058062;28;20988;-69
2022/05/12 08:36:04;;;;;;;4.72;4.00;;;;;;;;;;5061545;28;20394;-67
2022/05/12 08:38:32;;;;;;;4.85;4.13;;;;;;;;;;5065068;28;20226;-67
2022/05/12 08:40:59;;;;;;;4.45;3.58;;;;;;;;;;5064712;28;20571;-67
2022/05/12 08:43:32;;;;;;;4.25;3.58;;;;;;;;;;5068050;28;20204;-68
2022/05/12 08:46:05;;;;;;;9.30;3.63;;;;;;;;;;5077516;28;20576;-67
2022/05/12 08:48:33;;;;;;;5.65;3.63;;;;;;;;;;5066714;28;20722;-67
2022/05/12 08:51:01;;;;;;;5.85;3.22;;;;;;;;;;5061866;28;20212;-65
2022/05/12 08:53:30;;;;;;;6.68;3.60;;;;;;;;;;5062607;28;20800;-68
2022/05/12 08:55:59;;;;;;;4.55;3.67;;;;;;;;;;5057385;28;20691;-66
2022/05/12 08:58:40;;;;;;;5.60;3.63;;;;;;;;;;5064848;28;20224;-66
2022/05/12 09:01:10;;;;;;;5.57;4.05;;;;;;;;;;5077791;28;20204;-68
2022/05/12 09:03:57;;;;;;;4.05;3.45;;;;;;;;;;5054647;28;20210;-67
2022/05/12 09:06:29;;;;;;;4.93;3.70;;;;;;;;;;5062094;28;20290;-66
2022/05/12 09:08:57;;;;;;;3.80;3.42;;;;;;;;;;5058788;28;20233;-66
2022/05/12 09:11:24;;;;;;;5.30;3.60;;;;;;;;;;5055342;28;20221;-67
2022/05/12 09:13:53;;;;;;;5.05;3.60;;;;;;;;;;5065416;28;20209;-67
2022/05/12 09:16:21;;;;;;;4.05;3.72;;;;;;;;;;5068752;28;20197;-67
2022/05/12 09:18:48;;;;;;;4.05;3.65;;;;;;;;;;5069169;28;20228;-67
2022/05/12 09:21:18;;;;;;;10.80;5.97;;;;;;;;;;5065817;28;20213;-66
2022/05/12 09:23:45;;;;;;;6.13;3.88;;;;;;;;;;5066437;28;20201;-69
2022/05/12 09:26:32;;;;;;;6.13;4.13;;;;;;;;;;5064927;28;20300;-67
2022/05/12 09:29:14;;;;;;;4.22;3.83;;;;;;;;;;5070414;28;20232;-68
2022/05/12 09:31:43;;;;;;;4.88;4.00;;;;;;;;;;5070685;28;20693;-67
2022/05/12 09:34:16;;;;;;;6.82;3.65;;;;;;;;;;5054867;28;20233;-67
2022/05/12 09:36:43;;;;;;;7.43;3.92;;;;;;;;;;5053235;28;20202;-67
2022/05/12 09:39:12;;;;;;;4.55;3.83;;;;;;;;;;5061051;28;20785;-66
2022/05/12 09:41:39;;;;;;;5.80;3.63;;;;;;;;;;5062938;28;20201;-67
2022/05/12 09:44:15;;;;;;;5.68;3.88;;;;;;;;;;5061366;28;20663;-69
2022/05/12 09:46:54;;;;;;;5.40;3.60;;;;;;;;;;5055534;28;20208;-66
2022/05/12 09:49:23;;;;;;;5.72;4.32;;;;;;;;;;5059504;28;20224;-67
2022/05/12 09:51:50;;;;;;;6.95;5.57;;;;;;;;;;5059445;28;20631;-67
2022/05/12 09:54:29;;;;;;;8.30;6.03;;;;;;;;;;5086248;28;20377;-66
2022/05/12 09:57:17;;;;;;;7.13;5.05;;;;;;;;;;5064472;28;20205;-67
2022/05/12 09:59:51;;;;;;;6.28;4.13;;;;;;;;;;5059599;28;20209;-67
2022/05/12 10:08:08;;;;;;;8.70;5.50;;;;;;;;;;5076032;28;20232;-68
2022/05/12 10:10:36;;;;;;;5.53;3.50;;;;;;;;;;5056069;28;20204;-69
2022/05/12 10:13:06;;;;;;;4.78;4.32;;;;;;;;;;5059695;28;20228;-67
2022/05/12 10:15:38;;;;;;;7.50;4.13;;;;;;;;;;5060673;28;20193;-66
2022/05/12 10:18:25;;;;;;;7.70;4.28;;;;;;;;;;5055602;28;20235;-66
2022/05/12 10:20:54;;;;;;;4.32;3.70;;;;;;;;;;5077335;28;20197;-69
2022/05/12 10:23:41;;;;;;;5.13;4.07;;;;;;;;;;5063120;28;20639;-67
2022/05/12 10:26:24;;;;;;;5.88;4.07;;;;;;;;;;5058583;28;23333;-66
2022/05/12 10:29:04;;;;;;;10.20;4.28;;;;;;;;;;5058461;28;20278;-67
2022/05/12 10:31:46;;;;;;;6.68;4.28;;;;;;;;;;5054974;28;20654;-67
2022/05/12 10:34:27;;;;;;;6.00;4.40;;;;;;;;;;5060855;28;21283;-69
2022/05/12 10:37:13;;;;;;;5.30;4.53;;;;;;;;;;5055675;28;20201;-67
2022/05/12 10:39:55;;;;;;;8.43;4.80;;;;;;;;;;5056042;28;20283;-69
2022/05/12 10:42:41;;;;;;;4.93;4.40;;;;;;;;;;5051047;28;20294;-68
2022/05/12 10:45:28;;;;;;;5.57;4.03;;;;;;;;;;5067748;28;20530;-67
2022/05/12 10:48:05;;;;;;;5.10;4.60;;;;;;;;;;5057228;28;20610;-69
2022/05/12 10:50:44;;;;;;;6.25;4.25;;;;;;;;;;5053163;28;20212;-70
2022/05/12 10:53:29;;;;;;;4.53;4.00;;;;;;;;;;5045279;28;20306;-68
2022/05/12 10:56:15;;;;;;;6.88;4.20;;;;;;;;;;5038290;28;20201;-66
2022/05/12 10:58:49;;;;;;;4.38;3.90;;;;;;;;;;5048357;28;20626;-70
2022/05/12 11:01:17;;;;;;;4.43;4.03;;;;;;;;;;5066437;28;20205;-69
2022/05/12 11:03:48;;;;;;;4.93;4.07;;;;;;;;;;5045405;28;20239;-66
2022/05/12 11:06:18;;;;;;;7.53;4.78;;;;;;;;;;5050736;28;20217;-68
2022/05/12 11:08:55;;;;;;;4.78;4.38;;;;;;;;;;5048932;28;21724;-65
2022/05/12 11:11:34;;;;;;;5.13;4.63;;;;;;;;;;5065282;28;20217;-68
2022/05/12 11:14:37;;;;;;;6.10;4.57;;;;;;;;;;5046148;28;20345;-67
2022/05/12 11:17:10;;;;;;;6.75;4.75;;;;;;;;;;4948297;28;20214;-69
2022/05/12 11:19:42;;;;;;;6.72;5.63;;;;;;;;;;5046546;28;20197;-68
2022/05/12 11:22:22;;;;;;;6.63;4.40;;;;;;;;;;5047733;28;20193;-67
2022/05/12 11:24:49;;;;;;;7.20;4.20;;;;;;;;;;5054561;28;20712;-68
2022/05/12 11:27:20;;;;;;;4.60;4.20;;;;;;;;;;5061597;28;20217;-66
2022/05/12 11:30:06;;;;;;;7.10;5.82;;;;;;;;;;5045885;28;20205;-66
2022/05/12 11:32:43;;;;;;;8.70;5.95;;;;;;;;;;5047156;28;20223;-67
2022/05/12 11:35:19;;;;;;;5.50;4.40;;;;;;;;;;5052845;28;20216;-67
2022/05/12 11:37:50;;;;;;;5.20;4.03;;;;;;;;;;5061205;28;20220;-66
2022/05/12 11:40:36;;;;;;;5.38;4.63;;;;;;;;;;5062803;28;20201;-66
2022/05/12 11:46:14;;;;;;;5.25;4.70;;;;;;;;;;5071870;28;20208;-69
2022/05/12 11:48:49;;;;;;;5.88;4.03;;;;;;;;;;5034511;28;20235;-68
2022/05/12 11:51:23;;;;;;;4.53;4.05;;;;;;;;;;5045970;28;20211;-67
2022/05/12 11:53:55;;;;;;;6.60;4.22;;;;;;;;;;5043692;28;20256;-67
2022/05/12 11:56:42;;;;;;;5.05;3.90;;;;;;;;;;5042080;28;20197;-67
2022/05/12 11:59:18;;;;;;;4.95;4.43;;;;;;;;;;5042695;28;20315;-66
2022/05/12 12:01:49;;;;;;;6.70;4.50;;;;;;;;;;5065017;28;20243;-68
2022/05/12 12:04:36;;;;;;;4.13;3.83;;;;;;;;;;5042035;28;20243;-69
2022/05/12 12:07:05;;;;;;;8.32;4.88;;;;;;;;;;5044587;28;20257;-67
2022/05/12 12:09:38;;;;;;;5.25;4.18;;;;;;;;;;5054454;28;21633;-69
2022/05/12 12:12:08;;;;;;;5.85;4.20;;;;;;;;;;5044756;28;20586;-67
2022/05/12 12:14:51;;;;;;;4.28;3.80;;;;;;;;;;5046394;28;20733;-68
2022/05/12 12:17:38;;;;;;;5.97;4.30;;;;;;;;;;5047972;28;20356;-69
2022/05/12 12:20:05;;;;;;;8.13;4.88;;;;;;;;;;5062453;28;20198;-67
2022/05/12 12:22:33;;;;;;;5.15;4.18;;;;;;;;;;5049956;28;20205;-67
2022/05/12 12:25:23;;;;;;;6.65;4.18;;;;;;;;;;5067300;28;20205;-68
2022/05/12 12:27:57;;;;;;;4.75;4.35;;;;;;;;;;5039568;28;20222;-70
2022/05/12 12:30:27;;;;;;;5.15;4.30;;;;;;;;;;5051463;28;21292;-69
2022/05/12 12:33:15;;;;;;;7.13;4.40;;;;;;;;;;5058362;28;20286;-68
2022/05/12 12:36:00;;;;;;;4.93;4.45;;;;;;;;;;5058404;28;20266;-67
2022/05/12 12:38:50;;;;;;;5.93;4.90;;;;;;;;;;5060788;28;20243;-66
2022/05/12 12:41:30;;;;;;;4.93;4.43;;;;;;;;;;5058544;28;20824;-66
2022/05/12 12:43:59;;;;;;;6.10;4.40;;;;;;;;;;5067446;28;20205;-68
2022/05/12 12:46:28;;;;;;;5.10;4.70;;;;;;;;;;5065903;28;20664;-67
2022/05/12 12:49:15;;;;;;;7.47;4.97;;;;;;;;;;5064582;28;20591;-69
2022/05/12 12:51:43;;;;;;;6.88;4.22;;;;;;;;;;5063286;28;20224;-67
2022/05/12 12:57:26;;;;;;;4.80;4.40;;;;;;;;;;5081066;28;20212;-67
2022/05/12 12:59:53;;;;;;;8.95;4.38;;;;;;;;;;5063303;28;20212;-67
2022/05/12 13:02:25;;;;;;;4.75;4.10;;;;;;;;;;5056104;28;20208;-67
2022/05/12 13:04:55;;;;;;;6.78;4.30;;;;;;;;;;5064197;28;20302;-68
2022/05/12 13:07:27;;;;;;;5.32;4.43;;;;;;;;;;5061215;28;20222;-67
2022/05/12 13:09:55;;;;;;;6.25;4.63;;;;;;;;;;5060344;28;20258;-67
2022/05/12 13:12:26;;;;;;;6.45;4.40;;;;;;;;;;5058500;28;20209;-68
2022/05/12 13:14:55;;;;;;;5.03;4.22;;;;;;;;;;5065216;28;20311;-66
2022/05/12 13:17:25;;;;;;;6.97;4.40;;;;;;;;;;5062764;28;20221;-67
2022/05/12 13:19:53;;;;;;;7.28;4.50;;;;;;;;;;5066125;28;20216;-66
2022/05/12 13:22:23;;;;;;;5.03;4.10;;;;;;;;;;5067132;28;20196;-68
2022/05/12 13:24:51;;;;;;;6.20;4.50;;;;;;;;;;5063951;28;20291;-68
2022/05/12 13:27:21;;;;;;;6.15;4.45;;;;;;;;;;5059787;28;20212;-67
2022/05/12 13:29:49;;;;;;;5.03;4.13;;;;;;;;;;5058555;28;20205;-68
2022/05/12 13:32:27;;;;;;;6.93;4.63;;;;;;;;;;5060837;28;20217;-67
2022/05/12 13:34:55;;;;;;;6.22;4.65;;;;;;;;;;5057680;28;20423;-68
2022/05/12 13:37:26;;;;;;;7.28;5.40;;;;;;;;;;5070294;28;20266;-67
2022/05/12 13:39:59;;;;;;;5.78;4.07;;;;;;;;;;5057482;28;20219;-66
2022/05/12 13:42:27;;;;;;;6.68;4.13;;;;;;;;;;5058134;28;20216;-67
2022/05/12 13:44:56;;;;;;;7.03;4.22;;;;;;;;;;5069873;28;20213;-67
2022/05/12 13:47:29;;;;;;;5.35;4.85;;;;;;;;;;5062897;28;20229;-68
2022/05/12 13:49:57;;;;;;;6.28;4.47;;;;;;;;;;5053603;28;20639;-67
2022/05/12 13:52:38;;;;;;;6.40;4.10;;;;;;;;;;5053630;28;20213;-66
2022/05/12 13:55:07;;;;;;;5.68;4.53;;;;;;;;;;5063063;28;20236;-66
2022/05/12 13:57:43;;;;;;;7.93;5.22;;;;;;;;;;5082326;28;20224;-66
2022/05/12 14:00:13;;;;;;;5.20;4.40;;;;;;;;;;5066151;28;20215;-67
2022/05/12 14:02:43;;;;;;;6.30;4.15;;;;;;;;;;5058893;28;20219;-67
2022/05/12 14:05:20;;;;;;;6.32;4.30;;;;;;;;;;5064568;28;20247;-67
2022/05/12 14:08:06;;;;;;;6.30;4.75;;;;;;;;;;5061436;28;20718;-67
2022/05/12 14:10:38;;;;;;;8.15;4.25;;;;;;;;;;5059973;28;20781;-67
2022/05/12 14:21:27;;;;;;;4.80;4.40;;;;;;;;;;5075975;28;20762;-68
2022/05/12 14:23:55;;;;;;;11.00;4.30;;;;;;;;;;5059449;28;20225;-67
2022/05/12 14:26:22;;;;;;;6.32;4.38;;;;;;;;;;5058462;28;20204;-65
2022/05/12 14:28:50;;;;;;;6.10;4.30;;;;;;;;;;5061527;28;20766;-67
2022/05/12 14:31:19;;;;;;;4.68;4.15;;;;;;;;;;5052896;28;20211;-66
2022/05/12 14:33:46;;;;;;;9.65;4.38;;;;;;;;;;5056600;28;20233;-67
2022/05/12 14:36:13;;;;;;;7.90;4.55;;;;;;;;;;5080592;28;20262;-67
2022/05/12 14:38:41;;;;;;;4.15;3.85;;;;;;;;;;5062125;28;20248;-67
2022/05/12 14:41:08;;;;;;;6.88;4.40;;;;;;;;;;5056344;28;20291;-66
2022/05/12 14:43:36;;;;;;;6.28;4.78;;;;;;;;;;5064346;28;20196;-66
2022/05/12 14:46:03;;;;;;;9.75;5.53;;;;;;;;;;5074226;28;20531;-67
2022/05/12 14:48:31;;;;;;;5.10;4.60;;;;;;;;;;5055073;28;20241;-67
2022/05/12 14:50:59;;;;;;;8.07;5.60;;;;;;;;;;5055543;28;20219;-66
2022/05/12 14:53:27;;;;;;;4.72;4.25;;;;;;;;;;5059864;28;20224;-66
2022/05/12 14:55:56;;;;;;;6.32;3.97;;;;;;;;;;5075144;28;22018;-67
2022/05/12 14:58:23;;;;;;;8.43;4.55;;;;;;;;;;5060530;28;20274;-68
2022/05/12 15:00:50;;;;;;;5.28;3.88;;;;;;;;;;5060342;28;20205;-66
2022/05/12 15:03:18;;;;;;;4.95;4.15;;;;;;;;;;5065401;28;20197;-67
2022/05/12 15:05:45;;;;;;;4.95;4.45;;;;;;;;;;5063618;28;20204;-66
2022/05/12 15:08:13;;;;;;;6.43;4.00;;;;;;;;;;5064517;28;20229;-68
2022/05/12 15:10:40;;;;;;;4.85;4.25;;;;;;;;;;5067567;28;20217;-67
2022/05/12 15:13:08;;;;;;;4.65;4.25;;;;;;;;;;5068704;28;20295;-65
2022/05/12 15:15:37;;;;;;;5.20;4.47;;;;;;;;;;5059375;28;20224;-67
2022/05/12 15:18:05;;;;;;;9.07;4.72;;;;;;;;;;5056727;28;20725;-67
2022/05/12 15:20:32;;;;;;;5.45;4.20;;;;;;;;;;5053313;28;20266;-67
2022/05/12 15:23:01;;;;;;;6.80;5.18;;;;;;;;;;5072247;28;20205;-67
2022/05/12 15:25:28;;;;;;;4.75;4.32;;;;;;;;;;5048215;28;20663;-68
2022/05/12 15:27:56;;;;;;;7.32;5.20;;;;;;;;;;5063940;28;20315;-67
2022/05/12 15:30:24;;;;;;;7.00;4.78;;;;;;;;;;5065350;28;20206;-67